createdAt,value
2023-04-16T00:04:23.222Z,14.70
2023-04-16T00:06:51.088Z,10.98
2023-04-16T00:09:27.377Z,9.43
2023-04-16T00:11:55.042Z,14.10
2023-04-16T00:14:22.903Z,12.05
2023-04-16T00:16:51.569Z,10.50
2023-04-16T00:19:19.659Z,14.52
2023-04-16T00:21:51.485Z,11.43
2023-04-16T00:24:21.824Z,13.68
2023-04-16T00:26:50.807Z,15.05
2023-04-16T00:29:19.666Z,14.20
2023-04-16T00:31:48.265Z,20.35
2023-04-16T00:34:15.841Z,14.38
2023-04-16T00:36:44.116Z,18.67
2023-04-16T00:39:13.276Z,18.95
2023-04-16T00:41:41.185Z,18.55
2023-04-16T00:44:09.362Z,17.65
2023-04-16T00:46:38.420Z,19.55
2023-04-16T00:49:06.266Z,27.77
2023-04-16T00:51:34.169Z,22.73
2023-04-16T00:54:02.195Z,16.70
2023-04-16T00:56:29.792Z,15.18
2023-04-16T00:58:57.855Z,16.42
2023-04-16T01:01:25.794Z,18.45
2023-04-16T01:03:59.330Z,19.13
2023-04-16T01:06:28.635Z,22.58
2023-04-16T01:08:59.562Z,22.42
2023-04-16T01:11:29.025Z,13.70
2023-04-16T01:13:57.686Z,21.23
2023-04-16T01:16:26.961Z,20.33
2023-04-16T01:18:54.761Z,14.65
2023-04-16T01:21:23.046Z,21.23
2023-04-16T01:23:50.633Z,18.88
2023-04-16T01:26:20.721Z,19.30
2023-04-16T01:28:50.152Z,18.02
2023-04-16T01:31:19.018Z,21.60
2023-04-16T01:34:25.404Z,24.63
2023-04-16T01:36:53.458Z,25.02
2023-04-16T01:39:21.173Z,19.50
2023-04-16T01:41:54.454Z,26.15
2023-04-16T01:44:23.225Z,32.63
2023-04-16T01:46:52.455Z,29.17
2023-04-16T01:49:22.626Z,30.67
2023-04-16T01:51:50.515Z,31.25
2023-04-16T01:54:21.263Z,30.02
2023-04-16T01:56:52.165Z,29.90
2023-04-16T01:59:20.597Z,35.20
2023-04-16T02:01:50.726Z,36.13
2023-04-16T02:04:20.138Z,31.50
2023-04-16T02:06:50.716Z,33.10
2023-04-16T02:09:19.585Z,31.52
2023-04-16T02:11:52.856Z,34.88
2023-04-16T02:14:21.241Z,34.35
2023-04-16T02:16:52.797Z,36.17
2023-04-16T02:19:36.146Z,31.02
2023-04-16T02:22:03.840Z,38.28
2023-04-16T02:24:31.543Z,35.38
2023-04-16T02:29:29.745Z,39.58
2023-04-16T02:32:05.263Z,38.08
2023-04-16T02:34:34.871Z,43.00
2023-04-16T02:37:05.802Z,35.25
2023-04-16T02:39:33.922Z,42.92
2023-04-16T02:42:05.492Z,35.63
2023-04-16T02:44:33.589Z,38.72
2023-04-16T02:47:01.178Z,37.25
2023-04-16T02:49:28.872Z,40.50
2023-04-16T02:51:56.565Z,40.17
2023-04-16T02:54:24.098Z,42.72
2023-04-16T02:56:55.191Z,37.10
2023-04-16T02:59:28.797Z,42.72
2023-04-16T03:01:56.741Z,35.47
2023-04-16T03:04:24.576Z,42.92
2023-04-16T03:06:52.256Z,37.08
2023-04-16T03:09:20.592Z,42.95
2023-04-16T03:11:48.795Z,42.67
2023-04-16T03:14:19.428Z,50.35
2023-04-16T03:16:48.289Z,36.42
2023-04-16T03:19:17.778Z,38.63
2023-04-16T03:21:47.786Z,43.65
2023-04-16T03:24:15.892Z,42.72
2023-04-16T03:26:43.727Z,40.90
2023-04-16T03:29:11.650Z,51.97
2023-04-16T03:31:41.712Z,47.85
2023-04-16T03:34:11.812Z,42.15
2023-04-16T03:36:41.346Z,49.45
2023-04-16T03:39:09.534Z,53.58
2023-04-16T03:41:38.248Z,45.28
2023-04-16T03:44:05.848Z,45.35
2023-04-16T03:46:34.616Z,53.30
2023-04-16T03:49:02.121Z,43.55
2023-04-16T03:51:30.031Z,48.10
2023-04-16T03:53:57.997Z,52.15
2023-04-16T03:56:28.890Z,44.22
2023-04-16T03:58:58.670Z,50.03
2023-04-16T04:01:26.439Z,46.78
2023-04-16T04:03:54.501Z,41.22
2023-04-16T04:06:22.328Z,42.97
2023-04-16T04:08:50.133Z,46.05
2023-04-16T04:11:19.255Z,40.90
2023-04-16T04:13:51.557Z,43.78
2023-04-16T04:16:25.493Z,47.75
2023-04-16T04:18:53.351Z,42.10
2023-04-16T04:21:22.645Z,46.57
2023-04-16T04:23:50.508Z,50.97
2023-04-16T04:26:21.219Z,52.00
2023-04-16T04:28:51.029Z,46.33
2023-04-16T04:31:21.128Z,55.50
2023-04-16T04:33:49.640Z,46.53
2023-04-16T04:36:22.393Z,47.28
2023-04-16T04:38:51.310Z,53.17
2023-04-16T04:41:21.764Z,45.83
2023-04-16T04:43:49.503Z,49.58
2023-04-16T04:46:22.217Z,50.80
2023-04-16T04:48:51.045Z,41.60
2023-04-16T04:51:22.490Z,49.08
2023-04-16T04:53:50.226Z,49.60
2023-04-16T04:56:23.766Z,48.83
2023-04-16T04:58:52.251Z,51.85
2023-04-16T05:01:31.907Z,48.87
2023-04-16T05:04:01.109Z,52.88
2023-04-16T05:06:29.621Z,53.50
2023-04-16T05:08:57.322Z,59.45
2023-04-16T05:11:24.951Z,59.10
2023-04-16T05:13:52.575Z,54.95
2023-04-16T05:16:21.391Z,57.55
2023-04-16T05:18:50.630Z,58.15
2023-04-16T05:21:19.943Z,54.67
2023-04-16T05:23:48.878Z,53.38
2023-04-16T05:26:19.032Z,50.35
2023-04-16T05:28:47.358Z,54.88
2023-04-16T05:31:15.508Z,55.10
2023-04-16T05:33:43.195Z,68.07
2023-04-16T05:36:11.529Z,57.38
2023-04-16T05:38:38.934Z,57.78
2023-04-16T05:41:07.187Z,55.65
2023-04-16T05:43:35.031Z,58.65
2023-04-16T05:46:02.607Z,51.17
2023-04-16T05:48:30.342Z,48.38
2023-04-16T05:50:58.097Z,51.63
2023-04-16T05:53:25.944Z,53.67
2023-04-16T05:55:53.850Z,49.30
2023-04-16T05:58:21.448Z,53.35
2023-04-16T06:00:49.595Z,48.08
2023-04-16T06:03:19.430Z,45.38
2023-04-16T06:05:51.150Z,47.65
2023-04-16T06:08:29.373Z,40.55
2023-04-16T06:10:56.897Z,49.35
2023-04-16T06:13:24.654Z,42.45
2023-04-16T06:15:52.478Z,49.53
2023-04-16T06:18:20.972Z,40.88
2023-04-16T06:20:50.069Z,44.33
2023-04-16T06:23:21.385Z,47.47
2023-04-16T06:25:49.747Z,44.38
2023-04-16T06:28:19.629Z,48.83
2023-04-16T06:30:49.229Z,46.63
2023-04-16T06:33:19.231Z,44.50
2023-04-16T06:38:15.470Z,39.63
2023-04-16T06:40:43.261Z,42.42
2023-04-16T06:43:11.050Z,42.33
2023-04-16T06:45:38.978Z,43.67
2023-04-16T06:48:06.637Z,45.28
2023-04-16T06:50:35.537Z,42.22
2023-04-16T06:53:04.075Z,42.05
2023-04-16T06:55:31.658Z,45.85
2023-04-16T06:58:00.169Z,42.55
2023-04-16T07:00:27.945Z,36.67
2023-04-16T07:02:57.877Z,41.60
2023-04-16T07:05:27.376Z,33.85
2023-04-16T07:07:58.269Z,41.10
2023-04-16T07:10:26.229Z,37.53
2023-04-16T07:12:53.830Z,42.03
2023-04-16T07:15:22.484Z,44.45
2023-04-16T07:17:51.614Z,38.50
2023-04-16T07:20:22.273Z,34.47
2023-04-16T07:22:50.899Z,38.92
2023-04-16T07:25:23.644Z,41.65
2023-04-16T07:27:51.605Z,37.85
2023-04-16T07:30:24.761Z,37.97
2023-04-16T07:32:53.314Z,41.55
2023-04-16T07:35:21.360Z,40.55
2023-04-16T07:37:49.807Z,40.72
2023-04-16T07:40:24.005Z,41.33
2023-04-16T07:42:52.081Z,41.45
2023-04-16T07:45:20.436Z,41.88
2023-04-16T07:47:49.362Z,39.15
2023-04-16T07:50:21.272Z,39.05
2023-04-16T07:52:49.425Z,37.47
2023-04-16T07:55:18.649Z,39.08
2023-04-16T07:57:47.081Z,41.40
2023-04-16T08:00:15.447Z,45.00
2023-04-16T08:02:44.099Z,37.17
2023-04-16T08:05:12.835Z,33.03
2023-04-16T08:07:40.430Z,37.80
2023-04-16T08:10:08.574Z,39.85
2023-04-16T08:12:36.563Z,38.63
2023-04-16T08:15:04.113Z,45.97
2023-04-16T08:17:31.814Z,37.90
2023-04-16T08:20:04.914Z,44.15
2023-04-16T08:22:34.657Z,40.22
2023-04-16T08:25:02.806Z,45.95
2023-04-16T08:27:30.428Z,38.03
2023-04-16T08:29:57.955Z,37.67
2023-04-16T08:32:26.265Z,40.80
2023-04-16T08:34:57.621Z,38.85
2023-04-16T08:37:25.834Z,37.72
2023-04-16T08:39:54.474Z,36.85
2023-04-16T08:42:32.288Z,43.40
2023-04-16T08:45:18.952Z,44.13
2023-04-16T08:47:49.050Z,42.85
2023-04-16T08:50:20.213Z,40.45
2023-04-16T08:52:53.330Z,42.45
2023-04-16T08:55:24.295Z,38.00
2023-04-16T08:57:54.604Z,41.22
2023-04-16T09:00:23.078Z,37.88
2023-04-16T09:02:51.814Z,39.97
2023-04-16T09:05:21.940Z,36.08
2023-04-16T09:07:57.027Z,35.13
2023-04-16T09:10:28.758Z,42.10
2023-04-16T09:13:04.381Z,37.90
2023-04-16T09:15:33.998Z,43.35
2023-04-16T09:18:03.277Z,38.38
2023-04-16T09:20:30.990Z,42.42
2023-04-16T09:23:03.480Z,41.25
2023-04-16T09:25:35.857Z,39.05
2023-04-16T09:28:04.436Z,40.78
2023-04-16T09:30:32.017Z,43.03
2023-04-16T09:33:17.946Z,45.55
2023-04-16T09:35:48.780Z,43.88
2023-04-16T09:38:20.854Z,40.67
2023-04-16T09:41:07.279Z,42.92
2023-04-16T09:43:35.733Z,42.97
2023-04-16T09:46:08.010Z,46.20
2023-04-16T09:48:36.782Z,43.42
2023-04-16T09:51:07.014Z,42.13
2023-04-16T09:53:37.580Z,41.75
2023-04-16T09:56:07.080Z,43.60
2023-04-16T09:58:38.140Z,41.13
2023-04-16T10:01:08.531Z,42.55
2023-04-16T10:03:37.267Z,49.20
2023-04-16T10:06:09.902Z,40.90
2023-04-16T10:08:37.885Z,42.05
2023-04-16T10:11:08.110Z,44.95
2023-04-16T10:13:36.212Z,42.78
2023-04-16T10:16:04.242Z,42.63
2023-04-16T10:18:32.106Z,44.78
2023-04-16T10:21:00.017Z,41.72
2023-04-16T10:23:28.613Z,45.33
2023-04-16T10:25:57.602Z,43.60
2023-04-16T10:28:27.321Z,47.05
2023-04-16T10:30:56.727Z,42.90
2023-04-16T10:33:25.568Z,40.95
2023-04-16T10:36:04.899Z,44.05
2023-04-16T10:38:35.501Z,39.72
2023-04-16T10:41:05.560Z,43.25
2023-04-16T10:43:34.578Z,45.05
2023-04-16T10:46:21.633Z,47.55
2023-04-16T10:48:50.903Z,43.35
2023-04-16T10:51:31.787Z,45.22
2023-04-16T10:54:06.023Z,39.72
2023-04-16T10:56:36.577Z,47.47
2023-04-16T10:59:08.393Z,39.80
2023-04-16T11:01:45.172Z,37.83
2023-04-16T11:04:22.022Z,35.38
2023-04-16T11:07:05.960Z,46.83
2023-04-16T11:09:53.253Z,44.80
2023-04-16T11:12:41.066Z,41.33
2023-04-16T11:15:24.399Z,44.63
2023-04-16T11:17:53.020Z,39.13
2023-04-16T11:20:28.132Z,37.40
2023-04-16T11:22:57.024Z,40.15
2023-04-16T11:25:30.037Z,38.25
2023-04-16T11:27:59.633Z,37.85
2023-04-16T11:30:34.744Z,39.10
2023-04-16T11:33:06.347Z,40.20
2023-04-16T11:35:34.286Z,39.42
2023-04-16T11:38:04.740Z,43.95
2023-04-16T11:40:33.275Z,35.45
2023-04-16T11:43:04.170Z,38.65
2023-04-16T11:45:32.010Z,35.13
2023-04-16T11:48:02.945Z,38.25
2023-04-16T11:50:30.605Z,35.75
2023-04-16T11:53:04.392Z,36.03
2023-04-16T11:55:32.290Z,40.00
2023-04-16T11:58:12.052Z,36.88
2023-04-16T12:00:39.784Z,37.85
2023-04-16T12:03:08.385Z,39.78
2023-04-16T12:05:39.348Z,40.22
2023-04-16T12:08:07.935Z,32.20
2023-04-16T12:10:36.876Z,37.47
2023-04-16T12:13:31.269Z,39.72
2023-04-16T12:15:59.030Z,38.40
2023-04-16T12:18:27.747Z,36.17
2023-04-16T12:20:56.115Z,39.03
2023-04-16T12:23:33.748Z,37.60
2023-04-16T12:26:10.829Z,36.30
2023-04-16T12:28:41.942Z,39.17
2023-04-16T12:31:10.819Z,40.83
2023-04-16T12:33:39.004Z,38.13
2023-04-16T12:36:22.358Z,37.67
2023-04-16T12:38:50.035Z,34.92
2023-04-16T12:41:18.616Z,38.85
2023-04-16T12:43:48.849Z,29.27
2023-04-16T12:46:17.720Z,32.70
2023-04-16T12:48:48.420Z,39.53
2023-04-16T12:51:17.385Z,34.85
2023-04-16T12:53:45.037Z,29.90
2023-04-16T12:56:13.201Z,30.75
2023-04-16T12:58:40.956Z,30.38
2023-04-16T13:01:08.778Z,28.48
2023-04-16T13:03:37.561Z,29.58
2023-04-16T13:06:05.918Z,35.10
2023-04-16T13:08:33.812Z,32.45
2023-04-16T13:11:01.540Z,30.13
2023-04-16T13:13:29.308Z,34.10
2023-04-16T13:15:58.825Z,29.05
2023-04-16T13:18:30.415Z,27.70
2023-04-16T13:20:59.102Z,35.33
2023-04-16T13:23:28.311Z,31.52
2023-04-16T13:25:59.653Z,29.50
2023-04-16T13:28:28.051Z,31.38
2023-04-16T13:30:56.227Z,28.83
2023-04-16T13:33:24.702Z,28.42
2023-04-16T13:35:52.375Z,28.75
2023-04-16T13:38:20.403Z,34.30
2023-04-16T13:40:52.399Z,32.42
2023-04-16T13:43:22.412Z,32.72
2023-04-16T13:45:50.645Z,30.13
2023-04-16T13:48:18.792Z,26.85
2023-04-16T13:50:47.364Z,30.63
2023-04-16T13:53:14.940Z,24.50
2023-04-16T13:55:43.350Z,26.67
2023-04-16T13:58:12.449Z,25.80
2023-04-16T14:00:40.610Z,28.00
2023-04-16T14:03:08.736Z,24.65
2023-04-16T14:05:36.290Z,27.70
2023-04-16T14:08:04.151Z,23.77
2023-04-16T14:10:33.163Z,24.42
2023-04-16T14:13:01.126Z,25.42
2023-04-16T14:15:30.411Z,22.17
2023-04-16T14:17:58.319Z,21.75
2023-04-16T14:20:26.263Z,24.35
2023-04-16T14:22:53.935Z,32.00
2023-04-16T14:25:21.734Z,25.35
2023-04-16T14:27:50.077Z,26.75
2023-04-16T14:30:18.883Z,25.67
2023-04-16T14:32:48.447Z,25.48
2023-04-16T14:35:18.404Z,26.42
2023-04-16T14:37:47.416Z,28.63
2023-04-16T14:40:15.518Z,27.73
2023-04-16T14:42:43.464Z,28.00
2023-04-16T14:45:11.576Z,29.25
2023-04-16T14:47:48.065Z,25.70
2023-04-16T14:50:16.632Z,24.70
2023-04-16T14:52:44.898Z,32.50
2023-04-16T14:55:12.395Z,27.40
2023-04-16T14:57:41.861Z,29.13
2023-04-16T15:00:13.583Z,27.02
2023-04-16T15:02:41.788Z,29.42
2023-04-16T15:05:10.648Z,31.10
2023-04-16T15:07:38.431Z,34.47
2023-04-16T15:10:06.998Z,26.65
2023-04-16T15:12:37.629Z,29.70
2023-04-16T15:17:33.704Z,24.77
2023-04-16T15:20:01.256Z,31.02
2023-04-16T15:22:29.562Z,27.08
2023-04-16T15:24:57.965Z,31.80
2023-04-16T15:27:26.867Z,39.67
2023-04-16T15:29:54.503Z,32.03
2023-04-16T15:32:22.793Z,26.08
2023-04-16T15:34:52.591Z,31.40
2023-04-16T15:37:23.877Z,30.15
2023-04-16T15:39:51.916Z,29.27
2023-04-16T15:42:20.019Z,29.48
2023-04-16T15:44:48.737Z,30.17
2023-04-16T15:47:18.214Z,32.83
2023-04-16T15:49:48.562Z,30.95
2023-04-16T15:54:48.964Z,32.55
2023-04-16T15:57:18.066Z,30.23
2023-04-16T15:59:59.373Z,26.05
2023-04-16T16:02:34.260Z,30.40
2023-04-16T16:05:05.086Z,26.83
2023-04-16T16:07:33.032Z,23.95
2023-04-16T16:10:05.247Z,26.65
2023-04-16T16:12:33.362Z,27.13
2023-04-16T16:15:02.494Z,30.45
2023-04-16T16:17:30.502Z,26.83
2023-04-16T16:19:59.238Z,25.63
2023-04-16T16:22:26.966Z,27.23
2023-04-16T16:24:56.454Z,30.85
2023-04-16T16:27:23.953Z,31.00
2023-04-16T16:29:51.669Z,23.55
2023-04-16T16:32:22.616Z,25.38
2023-04-16T16:34:50.417Z,28.08
2023-04-16T16:37:19.303Z,25.05
2023-04-16T16:39:47.150Z,26.13
2023-04-16T16:42:18.675Z,28.77
2023-04-16T16:44:48.623Z,25.75
2023-04-16T16:47:19.112Z,29.95
2023-04-16T16:49:50.227Z,26.98
2023-04-16T16:52:21.859Z,25.45
2023-04-16T16:54:49.968Z,31.77
2023-04-16T16:57:21.784Z,25.90
2023-04-16T16:59:51.199Z,28.85
2023-04-16T17:02:19.466Z,26.42
2023-04-16T17:05:08.845Z,28.80
2023-04-16T17:07:36.636Z,28.80
2023-04-16T17:10:06.604Z,27.98
2023-04-16T17:12:34.722Z,29.38
2023-04-16T17:15:03.579Z,28.38
2023-04-16T17:17:33.345Z,25.90
2023-04-16T17:20:01.833Z,28.38
2023-04-16T17:22:30.733Z,35.45
2023-04-16T17:24:58.315Z,26.50
2023-04-16T17:27:29.572Z,28.02
2023-04-16T17:30:01.279Z,27.92
2023-04-16T17:32:30.289Z,30.85
2023-04-16T17:34:58.145Z,34.35
2023-04-16T17:37:26.072Z,30.35
2023-04-16T17:39:53.828Z,28.35
2023-04-16T17:42:25.511Z,24.08
2023-04-16T17:44:53.881Z,29.67
2023-04-16T17:47:24.343Z,29.33
2023-04-16T17:49:58.048Z,28.58
2023-04-16T17:52:25.944Z,27.23
2023-04-16T17:55:01.532Z,29.30
2023-04-16T17:57:29.479Z,29.90
2023-04-16T17:59:57.555Z,26.05
2023-04-16T18:02:25.375Z,26.67
2023-04-16T18:04:54.220Z,24.98
2023-04-16T18:07:21.873Z,35.28
2023-04-16T18:09:49.577Z,29.63
2023-04-16T18:12:17.978Z,27.85
2023-04-16T18:14:48.015Z,27.85
2023-04-16T18:17:25.915Z,27.90
2023-04-16T18:19:53.590Z,30.70
2023-04-16T18:22:21.600Z,28.40
2023-04-16T18:24:49.592Z,35.22
2023-04-16T18:27:17.448Z,31.80
2023-04-16T18:29:46.715Z,35.53
2023-04-16T18:32:15.725Z,27.70
2023-04-16T18:34:43.520Z,29.65
2023-04-16T18:37:10.984Z,35.17
2023-04-16T18:39:38.652Z,31.67
2023-04-16T18:42:06.571Z,31.00
2023-04-16T18:44:34.402Z,33.10
2023-04-16T18:47:02.674Z,33.20
2023-04-16T18:49:31.391Z,39.38
2023-04-16T18:52:01.222Z,32.42
2023-04-16T18:54:28.760Z,38.70
2023-04-16T18:56:58.638Z,37.40
2023-04-16T18:59:27.679Z,37.17
2023-04-16T19:01:55.312Z,39.78
2023-04-16T19:04:23.319Z,31.60
2023-04-16T19:06:50.919Z,41.67
2023-04-16T19:09:20.216Z,37.50
2023-04-16T19:11:51.322Z,33.65
2023-04-16T19:14:20.284Z,34.97
2023-04-16T19:16:51.414Z,32.33
2023-04-16T19:19:22.379Z,34.63
2023-04-16T19:21:50.012Z,35.45
2023-04-16T19:24:20.079Z,32.63
2023-04-16T19:26:48.503Z,38.22
2023-04-16T19:29:18.604Z,33.92
2023-04-16T19:31:48.071Z,31.58
2023-04-16T19:34:17.423Z,35.88
2023-04-16T19:36:49.342Z,41.80
2023-04-16T19:39:17.471Z,37.45
2023-04-16T19:41:47.365Z,38.75
2023-04-16T19:44:17.477Z,38.17
2023-04-16T19:46:45.099Z,38.65
2023-04-16T19:49:14.126Z,38.72
2023-04-16T19:51:41.648Z,42.38
2023-04-16T19:54:09.575Z,39.35
2023-04-16T19:56:38.723Z,37.22
2023-04-16T19:59:07.000Z,37.65
2023-04-16T20:01:36.163Z,40.30
2023-04-16T20:04:03.951Z,42.95
2023-04-16T20:06:31.820Z,38.33
2023-04-16T20:08:59.623Z,42.28
2023-04-16T20:11:30.196Z,41.17
2023-04-16T20:16:27.997Z,38.33
2023-04-16T20:18:58.474Z,41.58
2023-04-16T20:23:55.021Z,42.85
2023-04-16T20:26:24.891Z,35.05
2023-04-16T20:28:52.457Z,40.88
2023-04-16T20:31:20.214Z,34.35
2023-04-16T20:33:48.589Z,43.72
2023-04-16T20:36:17.248Z,40.58
2023-04-16T20:38:45.093Z,44.17
2023-04-16T20:41:20.332Z,41.92
2023-04-16T20:43:51.032Z,42.45
2023-04-16T20:46:32.902Z,46.72
2023-04-16T20:49:01.275Z,45.30
2023-04-16T20:51:28.937Z,43.30
2023-04-16T20:53:56.710Z,46.53
2023-04-16T20:56:26.357Z,46.42
2023-04-16T20:58:56.239Z,45.13
2023-04-16T21:01:26.313Z,47.20
2023-04-16T21:03:55.140Z,50.42
2023-04-16T21:06:24.242Z,43.35
2023-04-16T21:08:52.054Z,44.97
2023-04-16T21:11:22.063Z,52.30
2023-04-16T21:13:49.917Z,46.80
2023-04-16T21:16:18.691Z,50.00
2023-04-16T21:18:47.422Z,43.20
2023-04-16T21:21:15.142Z,46.55
2023-04-16T21:23:43.095Z,46.78
2023-04-16T21:26:10.556Z,48.83
2023-04-16T21:28:38.537Z,45.83
2023-04-16T21:31:06.302Z,44.10
2023-04-16T21:33:35.236Z,47.85
2023-04-16T21:36:02.894Z,48.05
2023-04-16T21:38:30.418Z,42.67
2023-04-16T21:40:58.175Z,54.38
2023-04-16T21:43:27.231Z,51.90
2023-04-16T21:45:54.789Z,49.75
2023-04-16T21:48:22.774Z,46.40
2023-04-16T21:50:58.324Z,49.85
2023-04-16T21:53:32.159Z,48.38
2023-04-16T21:55:59.904Z,47.28
2023-04-16T21:58:28.670Z,46.50
2023-04-16T22:00:56.419Z,48.30
2023-04-16T22:03:26.855Z,48.35
2023-04-16T22:06:01.339Z,46.08
2023-04-16T22:08:32.426Z,46.22
2023-04-16T22:11:01.914Z,48.50
2023-04-16T22:13:32.478Z,44.15
2023-04-16T22:16:01.541Z,44.47
2023-04-16T22:18:32.928Z,43.67
2023-04-16T22:21:01.521Z,47.22
2023-04-16T22:23:29.637Z,50.10
2023-04-16T22:25:57.699Z,51.65
2023-04-16T22:28:25.203Z,46.90
2023-04-16T22:30:52.860Z,49.65
2023-04-16T22:33:22.306Z,50.08
2023-04-16T22:35:50.043Z,49.85
2023-04-16T22:38:21.401Z,52.30
2023-04-16T22:40:50.246Z,48.72
2023-04-16T22:43:19.417Z,47.80
2023-04-16T22:45:47.669Z,49.33
2023-04-16T22:48:23.122Z,49.92
2023-04-16T22:50:51.555Z,49.50
2023-04-16T22:53:26.537Z,47.28
2023-04-16T22:55:55.426Z,53.17
2023-04-16T22:58:22.798Z,51.17
2023-04-16T23:00:54.623Z,50.33
2023-04-16T23:03:22.711Z,48.75
2023-04-16T23:05:50.394Z,49.45
2023-04-16T23:08:21.035Z,46.58
2023-04-16T23:10:49.488Z,46.13
2023-04-16T23:13:18.405Z,47.38
2023-04-16T23:15:48.457Z,61.33
2023-04-16T23:18:17.337Z,53.83
2023-04-16T23:20:45.400Z,52.65
2023-04-16T23:23:13.069Z,45.83
2023-04-16T23:25:42.149Z,50.80
2023-04-16T23:28:11.130Z,44.47
2023-04-16T23:30:38.722Z,49.03
2023-04-16T23:33:06.936Z,43.85
2023-04-16T23:35:35.611Z,53.92
2023-04-16T23:38:03.581Z,47.97
2023-04-16T23:40:32.492Z,47.55
2023-04-16T23:43:00.125Z,43.35
2023-04-16T23:45:27.902Z,42.83
2023-04-16T23:47:55.510Z,52.17
2023-04-16T23:50:23.347Z,47.95
2023-04-16T23:52:51.168Z,45.03
2023-04-16T23:55:19.675Z,44.55
2023-04-16T23:57:48.412Z,42.83
